Terminal Aerodrome Forecast
Issued by NWS

Home | Current Version | Previous Version | Text Only | Print | Product List | Glossary On
Versions: 1 2 3 4 5 6 7 8 9 10 11 12 13 14 15 16 17 18 19 20 21 22 23 24 25
000
FTUS41 KOKX 291740
TAFHPN
TAF
KHPN 291740Z 2918/3018 30008KT P6SM FEW050 SCT250
     FM291900 16010KT P6SM FEW060 SCT250
     FM300300 22004KT P6SM FEW060 SCT250
     FM300600 26003KT 5SM BR FEW030 SCT250
     FM301200 23004KT 4SM HZ BR OVC015
     FM301500 20014KT P6SM SCT030 BKN050
      AMD NOT SKED=

USA.gov is the U.S. government's official web portal to all federal, state and local government web resources and services.